sensor_id;sensor_type;location;lat;lon;timestamp;P1;durP1;ratioP1;P2;durP2;ratioP2
51266;SDS011;37338;47.426;19.204;2024-02-21T00:00:38;3.47;;;3.10;;
51266;SDS011;37338;47.426;19.204;2024-02-21T00:03:04;4.67;;;3.70;;
51266;SDS011;37338;47.426;19.204;2024-02-21T00:05:30;4.10;;;3.20;;
51266;SDS011;37338;47.426;19.204;2024-02-21T00:07:55;4.50;;;3.30;;
51266;SDS011;37338;47.426;19.204;2024-02-21T00:10:21;5.10;;;3.50;;
51266;SDS011;37338;47.426;19.204;2024-02-21T00:12:46;3.77;;;3.23;;
51266;SDS011;37338;47.426;19.204;2024-02-21T00:15:11;4.70;;;3.03;;
51266;SDS011;37338;47.426;19.204;2024-02-21T00:17:37;5.37;;;3.33;;
51266;SDS011;37338;47.426;19.204;2024-02-21T00:20:02;5.87;;;3.80;;
51266;SDS011;37338;47.426;19.204;2024-02-21T00:22:27;4.67;;;3.10;;
51266;SDS011;37338;47.426;19.204;2024-02-21T00:24:56;3.27;;;2.90;;
51266;SDS011;37338;47.426;19.204;2024-02-21T00:27:23;3.17;;;2.97;;
51266;SDS011;37338;47.426;19.204;2024-02-21T00:29:48;5.07;;;3.03;;
51266;SDS011;37338;47.426;19.204;2024-02-21T00:32:13;4.20;;;3.27;;
51266;SDS011;37338;47.426;19.204;2024-02-21T00:34:39;5.33;;;2.60;;
51266;SDS011;37338;47.426;19.204;2024-02-21T00:37:04;4.03;;;2.80;;
51266;SDS011;37338;47.426;19.204;2024-02-21T00:39:29;3.07;;;2.30;;
51266;SDS011;37338;47.426;19.204;2024-02-21T00:41:55;6.57;;;3.07;;
51266;SDS011;37338;47.426;19.204;2024-02-21T00:44:20;4.20;;;2.47;;
51266;SDS011;37338;47.426;19.204;2024-02-21T00:46:45;4.03;;;2.10;;
51266;SDS011;37338;47.426;19.204;2024-02-21T00:49:12;3.03;;;1.77;;
51266;SDS011;37338;47.426;19.204;2024-02-21T00:51:37;2.10;;;1.43;;
51266;SDS011;37338;47.426;19.204;2024-02-21T00:54:02;3.40;;;1.93;;
51266;SDS011;37338;47.426;19.204;2024-02-21T00:56:28;3.90;;;1.97;;
51266;SDS011;37338;47.426;19.204;2024-02-21T00:58:54;6.27;;;2.33;;
51266;SDS011;37338;47.426;19.204;2024-02-21T01:01:23;3.73;;;1.80;;
51266;SDS011;37338;47.426;19.204;2024-02-21T01:03:49;2.83;;;1.73;;
51266;SDS011;37338;47.426;19.204;2024-02-21T01:06:14;4.33;;;1.80;;
51266;SDS011;37338;47.426;19.204;2024-02-21T01:08:40;3.80;;;1.70;;
51266;SDS011;37338;47.426;19.204;2024-02-21T01:11:05;4.07;;;1.80;;
51266;SDS011;37338;47.426;19.204;2024-02-21T01:13:30;2.57;;;1.33;;
51266;SDS011;37338;47.426;19.204;2024-02-21T01:15:55;2.93;;;1.97;;
51266;SDS011;37338;47.426;19.204;2024-02-21T01:18:21;3.67;;;1.33;;
51266;SDS011;37338;47.426;19.204;2024-02-21T01:20:46;2.90;;;1.60;;
51266;SDS011;37338;47.426;19.204;2024-02-21T01:23:11;4.13;;;1.80;;
51266;SDS011;37338;47.426;19.204;2024-02-21T01:25:37;1.97;;;1.27;;
51266;SDS011;37338;47.426;19.204;2024-02-21T01:28:02;3.20;;;1.47;;
51266;SDS011;37338;47.426;19.204;2024-02-21T01:30:27;2.87;;;1.47;;
51266;SDS011;37338;47.426;19.204;2024-02-21T01:32:53;3.30;;;1.53;;
51266;SDS011;37338;47.426;19.204;2024-02-21T01:35:18;2.20;;;1.07;;
51266;SDS011;37338;47.426;19.204;2024-02-21T01:37:43;2.50;;;0.97;;
51266;SDS011;37338;47.426;19.204;2024-02-21T01:40:09;2.30;;;1.27;;
51266;SDS011;37338;47.426;19.204;2024-02-21T01:42:38;3.67;;;1.70;;
51266;SDS011;37338;47.426;19.204;2024-02-21T01:45:05;3.53;;;1.43;;
51266;SDS011;37338;47.426;19.204;2024-02-21T01:47:31;3.23;;;1.23;;
51266;SDS011;37338;47.426;19.204;2024-02-21T01:49:56;3.80;;;1.00;;
51266;SDS011;37338;47.426;19.204;2024-02-21T01:52:21;3.23;;;0.70;;
51266;SDS011;37338;47.426;19.204;2024-02-21T01:54:47;2.80;;;0.80;;
51266;SDS011;37338;47.426;19.204;2024-02-21T01:57:13;3.93;;;0.73;;
51266;SDS011;37338;47.426;19.204;2024-02-21T01:59:38;3.70;;;0.87;;
51266;SDS011;37338;47.426;19.204;2024-02-21T02:02:03;3.27;;;0.70;;
51266;SDS011;37338;47.426;19.204;2024-02-21T02:04:29;3.40;;;0.90;;
51266;SDS011;37338;47.426;19.204;2024-02-21T02:06:54;4.47;;;1.23;;
51266;SDS011;37338;47.426;19.204;2024-02-21T02:09:20;2.77;;;1.57;;
51266;SDS011;37338;47.426;19.204;2024-02-21T02:11:46;4.27;;;1.13;;
51266;SDS011;37338;47.426;19.204;2024-02-21T02:14:11;5.57;;;2.20;;
51266;SDS011;37338;47.426;19.204;2024-02-21T02:16:37;3.43;;;1.10;;
51266;SDS011;37338;47.426;19.204;2024-02-21T02:19:02;5.83;;;1.20;;
51266;SDS011;37338;47.426;19.204;2024-02-21T02:21:32;4.23;;;1.47;;
51266;SDS011;37338;47.426;19.204;2024-02-21T02:23:59;2.43;;;1.13;;
51266;SDS011;37338;47.426;19.204;2024-02-21T02:26:25;3.10;;;1.07;;
51266;SDS011;37338;47.426;19.204;2024-02-21T02:28:50;4.60;;;1.50;;
51266;SDS011;37338;47.426;19.204;2024-02-21T02:31:16;2.40;;;1.70;;
51266;SDS011;37338;47.426;19.204;2024-02-21T02:33:44;4.13;;;1.27;;
51266;SDS011;37338;47.426;19.204;2024-02-21T02:36:09;4.03;;;1.40;;
51266;SDS011;37338;47.426;19.204;2024-02-21T02:38:35;6.97;;;1.73;;
51266;SDS011;37338;47.426;19.204;2024-02-21T02:41:00;2.90;;;1.50;;
51266;SDS011;37338;47.426;19.204;2024-02-21T02:43:25;4.43;;;1.23;;
51266;SDS011;37338;47.426;19.204;2024-02-21T02:45:51;3.60;;;1.60;;
51266;SDS011;37338;47.426;19.204;2024-02-21T02:48:16;3.07;;;1.43;;
51266;SDS011;37338;47.426;19.204;2024-02-21T02:50:41;2.90;;;1.47;;
51266;SDS011;37338;47.426;19.204;2024-02-21T02:53:06;2.40;;;1.20;;
51266;SDS011;37338;47.426;19.204;2024-02-21T02:55:32;4.43;;;1.50;;
51266;SDS011;37338;47.426;19.204;2024-02-21T02:57:58;4.20;;;1.57;;
51266;SDS011;37338;47.426;19.204;2024-02-21T03:00:23;3.27;;;1.77;;
51266;SDS011;37338;47.426;19.204;2024-02-21T03:02:48;5.73;;;1.50;;
51266;SDS011;37338;47.426;19.204;2024-02-21T03:05:15;2.77;;;1.30;;
51266;SDS011;37338;47.426;19.204;2024-02-21T03:07:44;4.23;;;1.80;;
51266;SDS011;37338;47.426;19.204;2024-02-21T03:10:10;6.20;;;2.27;;
51266;SDS011;37338;47.426;19.204;2024-02-21T03:12:35;4.50;;;1.40;;
51266;SDS011;37338;47.426;19.204;2024-02-21T03:15:01;4.40;;;1.47;;
51266;SDS011;37338;47.426;19.204;2024-02-21T03:17:27;4.20;;;1.73;;
51266;SDS011;37338;47.426;19.204;2024-02-21T03:19:53;2.50;;;1.10;;
51266;SDS011;37338;47.426;19.204;2024-02-21T03:22:18;3.90;;;1.40;;
51266;SDS011;37338;47.426;19.204;2024-02-21T03:24:44;3.13;;;1.20;;
51266;SDS011;37338;47.426;19.204;2024-02-21T03:27:09;6.03;;;1.67;;
51266;SDS011;37338;47.426;19.204;2024-02-21T03:29:35;2.40;;;1.57;;
51266;SDS011;37338;47.426;19.204;2024-02-21T03:32:00;6.07;;;2.23;;
51266;SDS011;37338;47.426;19.204;2024-02-21T03:34:25;3.97;;;1.40;;
51266;SDS011;37338;47.426;19.204;2024-02-21T03:36:52;4.63;;;1.60;;
51266;SDS011;37338;47.426;19.204;2024-02-21T03:39:17;5.90;;;1.30;;
51266;SDS011;37338;47.426;19.204;2024-02-21T03:41:42;4.17;;;1.50;;
51266;SDS011;37338;47.426;19.204;2024-02-21T03:44:08;6.17;;;2.00;;
51266;SDS011;37338;47.426;19.204;2024-02-21T03:46:33;5.20;;;2.07;;
51266;SDS011;37338;47.426;19.204;2024-02-21T03:48:59;7.60;;;1.93;;
51266;SDS011;37338;47.426;19.204;2024-02-21T03:51:25;4.97;;;1.60;;
51266;SDS011;37338;47.426;19.204;2024-02-21T03:53:50;4.43;;;1.37;;
51266;SDS011;37338;47.426;19.204;2024-02-21T03:56:16;4.33;;;1.87;;
51266;SDS011;37338;47.426;19.204;2024-02-21T03:58:41;9.87;;;1.67;;
51266;SDS011;37338;47.426;19.204;2024-02-21T04:01:06;5.90;;;1.73;;
51266;SDS011;37338;47.426;19.204;2024-02-21T04:03:32;6.13;;;2.93;;
51266;SDS011;37338;47.426;19.204;2024-02-21T04:05:57;6.47;;;2.20;;
51266;SDS011;37338;47.426;19.204;2024-02-21T04:08:22;7.13;;;2.27;;
51266;SDS011;37338;47.426;19.204;2024-02-21T04:10:48;6.00;;;1.93;;
51266;SDS011;37338;47.426;19.204;2024-02-21T04:13:13;7.67;;;1.93;;
51266;SDS011;37338;47.426;19.204;2024-02-21T04:15:39;6.77;;;1.57;;
51266;SDS011;37338;47.426;19.204;2024-02-21T04:18:04;5.67;;;1.60;;
51266;SDS011;37338;47.426;19.204;2024-02-21T04:20:30;4.87;;;2.50;;
51266;SDS011;37338;47.426;19.204;2024-02-21T04:22:55;6.20;;;2.20;;
51266;SDS011;37338;47.426;19.204;2024-02-21T04:25:21;9.13;;;2.20;;
51266;SDS011;37338;47.426;19.204;2024-02-21T04:27:46;7.50;;;2.03;;
51266;SDS011;37338;47.426;19.204;2024-02-21T04:30:11;4.37;;;1.83;;
51266;SDS011;37338;47.426;19.204;2024-02-21T04:32:37;5.70;;;2.27;;
51266;SDS011;37338;47.426;19.204;2024-02-21T04:35:03;9.10;;;2.63;;
51266;SDS011;37338;47.426;19.204;2024-02-21T04:37:28;7.17;;;2.90;;
51266;SDS011;37338;47.426;19.204;2024-02-21T04:39:53;7.90;;;3.13;;
51266;SDS011;37338;47.426;19.204;2024-02-21T04:42:19;6.70;;;3.17;;
51266;SDS011;37338;47.426;19.204;2024-02-21T04:44:44;5.83;;;2.30;;
51266;SDS011;37338;47.426;19.204;2024-02-21T04:47:10;8.00;;;2.80;;
51266;SDS011;37338;47.426;19.204;2024-02-21T04:49:35;5.20;;;2.50;;
51266;SDS011;37338;47.426;19.204;2024-02-21T04:52:01;6.83;;;2.73;;
51266;SDS011;37338;47.426;19.204;2024-02-21T04:54:26;3.70;;;2.30;;
51266;SDS011;37338;47.426;19.204;2024-02-21T04:56:51;4.57;;;2.60;;
51266;SDS011;37338;47.426;19.204;2024-02-21T04:59:17;8.63;;;3.67;;
51266;SDS011;37338;47.426;19.204;2024-02-21T05:01:42;5.40;;;3.00;;
51266;SDS011;37338;47.426;19.204;2024-02-21T05:04:07;5.87;;;2.80;;
51266;SDS011;37338;47.426;19.204;2024-02-21T05:06:42;6.80;;;3.10;;
51266;SDS011;37338;47.426;19.204;2024-02-21T05:09:07;7.37;;;3.40;;
51266;SDS011;37338;47.426;19.204;2024-02-21T05:11:33;8.83;;;3.50;;
51266;SDS011;37338;47.426;19.204;2024-02-21T05:13:59;9.67;;;3.30;;
51266;SDS011;37338;47.426;19.204;2024-02-21T05:16:24;6.30;;;2.63;;
51266;SDS011;37338;47.426;19.204;2024-02-21T05:18:50;7.90;;;3.77;;
51266;SDS011;37338;47.426;19.204;2024-02-21T05:21:15;11.63;;;4.17;;
51266;SDS011;37338;47.426;19.204;2024-02-21T05:23:40;8.90;;;3.40;;
51266;SDS011;37338;47.426;19.204;2024-02-21T05:26:06;9.63;;;3.43;;
51266;SDS011;37338;47.426;19.204;2024-02-21T05:28:32;8.03;;;4.63;;
51266;SDS011;37338;47.426;19.204;2024-02-21T05:30:57;7.53;;;2.33;;
51266;SDS011;37338;47.426;19.204;2024-02-21T05:33:23;7.50;;;4.07;;
51266;SDS011;37338;47.426;19.204;2024-02-21T05:35:48;7.37;;;3.27;;
51266;SDS011;37338;47.426;19.204;2024-02-21T05:38:14;9.83;;;3.33;;
51266;SDS011;37338;47.426;19.204;2024-02-21T05:40:39;8.33;;;3.20;;
51266;SDS011;37338;47.426;19.204;2024-02-21T05:43:05;6.07;;;3.23;;
51266;SDS011;37338;47.426;19.204;2024-02-21T05:45:31;10.23;;;4.20;;
51266;SDS011;37338;47.426;19.204;2024-02-21T05:47:57;7.90;;;3.37;;
51266;SDS011;37338;47.426;19.204;2024-02-21T05:50:22;5.33;;;2.87;;
51266;SDS011;37338;47.426;19.204;2024-02-21T05:52:48;5.60;;;3.10;;
51266;SDS011;37338;47.426;19.204;2024-02-21T05:55:16;7.67;;;3.17;;
51266;SDS011;37338;47.426;19.204;2024-02-21T05:57:41;8.47;;;4.33;;
51266;SDS011;37338;47.426;19.204;2024-02-21T06:00:07;9.67;;;4.10;;
51266;SDS011;37338;47.426;19.204;2024-02-21T06:02:32;9.87;;;4.03;;
51266;SDS011;37338;47.426;19.204;2024-02-21T06:04:58;9.53;;;4.00;;
51266;SDS011;37338;47.426;19.204;2024-02-21T06:07:23;12.50;;;5.63;;
51266;SDS011;37338;47.426;19.204;2024-02-21T06:09:48;13.13;;;4.97;;
51266;SDS011;37338;47.426;19.204;2024-02-21T06:12:14;7.03;;;4.30;;
51266;SDS011;37338;47.426;19.204;2024-02-21T06:14:39;7.40;;;3.33;;
51266;SDS011;37338;47.426;19.204;2024-02-21T06:17:04;7.50;;;3.90;;
51266;SDS011;37338;47.426;19.204;2024-02-21T06:19:30;8.07;;;3.40;;
51266;SDS011;37338;47.426;19.204;2024-02-21T06:21:55;5.83;;;3.10;;
51266;SDS011;37338;47.426;19.204;2024-02-21T06:24:20;9.63;;;3.97;;
51266;SDS011;37338;47.426;19.204;2024-02-21T06:26:46;21.47;;;5.90;;
51266;SDS011;37338;47.426;19.204;2024-02-21T06:29:12;6.60;;;4.20;;
51266;SDS011;37338;47.426;19.204;2024-02-21T06:31:40;7.13;;;4.50;;
51266;SDS011;37338;47.426;19.204;2024-02-21T06:34:05;8.53;;;4.47;;
51266;SDS011;37338;47.426;19.204;2024-02-21T06:36:30;16.10;;;5.33;;
51266;SDS011;37338;47.426;19.204;2024-02-21T06:38:56;8.33;;;3.17;;
51266;SDS011;37338;47.426;19.204;2024-02-21T06:41:21;7.73;;;3.23;;
51266;SDS011;37338;47.426;19.204;2024-02-21T06:43:46;6.60;;;2.80;;
51266;SDS011;37338;47.426;19.204;2024-02-21T06:46:12;8.90;;;4.13;;
51266;SDS011;37338;47.426;19.204;2024-02-21T06:48:47;7.97;;;3.80;;
51266;SDS011;37338;47.426;19.204;2024-02-21T06:51:13;10.27;;;3.83;;
51266;SDS011;37338;47.426;19.204;2024-02-21T06:53:38;9.90;;;3.20;;
51266;SDS011;37338;47.426;19.204;2024-02-21T06:56:03;6.30;;;3.50;;
51266;SDS011;37338;47.426;19.204;2024-02-21T06:58:29;5.87;;;2.53;;
51266;SDS011;37338;47.426;19.204;2024-02-21T07:00:54;6.80;;;2.73;;
51266;SDS011;37338;47.426;19.204;2024-02-21T07:03:19;8.90;;;2.80;;
51266;SDS011;37338;47.426;19.204;2024-02-21T07:05:45;9.05;;;3.35;;
51266;SDS011;37338;47.426;19.204;2024-02-21T07:08:10;11.75;;;2.97;;
51266;SDS011;37338;47.426;19.204;2024-02-21T07:10:35;7.65;;;3.53;;
51266;SDS011;37338;47.426;19.204;2024-02-21T07:13:01;6.35;;;2.92;;
51266;SDS011;37338;47.426;19.204;2024-02-21T07:15:26;5.93;;;2.90;;
51266;SDS011;37338;47.426;19.204;2024-02-21T07:17:51;8.10;;;3.00;;
51266;SDS011;37338;47.426;19.204;2024-02-21T07:20:17;6.88;;;2.35;;
51266;SDS011;37338;47.426;19.204;2024-02-21T07:22:42;8.38;;;3.10;;
51266;SDS011;37338;47.426;19.204;2024-02-21T07:25:08;7.88;;;3.38;;
51266;SDS011;37338;47.426;19.204;2024-02-21T07:27:33;7.57;;;2.87;;
51266;SDS011;37338;47.426;19.204;2024-02-21T07:29:58;10.77;;;3.10;;
51266;SDS011;37338;47.426;19.204;2024-02-21T07:32:24;7.97;;;3.53;;
51266;SDS011;37338;47.426;19.204;2024-02-21T07:34:49;7.40;;;4.10;;
51266;SDS011;37338;47.426;19.204;2024-02-21T07:37:14;9.03;;;3.40;;
51266;SDS011;37338;47.426;19.204;2024-02-21T07:39:40;8.53;;;4.43;;
51266;SDS011;37338;47.426;19.204;2024-02-21T07:42:06;7.63;;;3.43;;
51266;SDS011;37338;47.426;19.204;2024-02-21T07:44:31;9.93;;;3.13;;
51266;SDS011;37338;47.426;19.204;2024-02-21T07:46:57;10.17;;;3.70;;
51266;SDS011;37338;47.426;19.204;2024-02-21T07:49:23;9.50;;;4.03;;
51266;SDS011;37338;47.426;19.204;2024-02-21T07:51:48;8.73;;;4.53;;
51266;SDS011;37338;47.426;19.204;2024-02-21T07:54:13;14.00;;;6.67;;
51266;SDS011;37338;47.426;19.204;2024-02-21T07:56:39;10.00;;;4.07;;
51266;SDS011;37338;47.426;19.204;2024-02-21T07:59:04;11.03;;;5.17;;
51266;SDS011;37338;47.426;19.204;2024-02-21T08:01:29;11.07;;;3.90;;
51266;SDS011;37338;47.426;19.204;2024-02-21T08:03:55;11.97;;;4.50;;
51266;SDS011;37338;47.426;19.204;2024-02-21T08:06:20;13.03;;;4.53;;
51266;SDS011;37338;47.426;19.204;2024-02-21T08:08:45;6.57;;;3.07;;
51266;SDS011;37338;47.426;19.204;2024-02-21T08:11:11;16.53;;;4.40;;
51266;SDS011;37338;47.426;19.204;2024-02-21T08:13:36;11.83;;;4.23;;
51266;SDS011;37338;47.426;19.204;2024-02-21T08:16:01;7.90;;;3.83;;
51266;SDS011;37338;47.426;19.204;2024-02-21T08:18:28;12.73;;;3.57;;
51266;SDS011;37338;47.426;19.204;2024-02-21T08:20:53;15.30;;;4.03;;
51266;SDS011;37338;47.426;19.204;2024-02-21T08:23:19;6.70;;;2.53;;
51266;SDS011;37338;47.426;19.204;2024-02-21T08:25:44;15.13;;;3.33;;
51266;SDS011;37338;47.426;19.204;2024-02-21T08:28:09;12.30;;;3.23;;
51266;SDS011;37338;47.426;19.204;2024-02-21T08:30:35;12.10;;;3.13;;
51266;SDS011;37338;47.426;19.204;2024-02-21T08:33:00;16.70;;;3.10;;
51266;SDS011;37338;47.426;19.204;2024-02-21T08:35:25;15.00;;;2.90;;
51266;SDS011;37338;47.426;19.204;2024-02-21T08:37:51;7.60;;;2.83;;
51266;SDS011;37338;47.426;19.204;2024-02-21T08:40:16;10.20;;;2.30;;
51266;SDS011;37338;47.426;19.204;2024-02-21T08:42:46;10.30;;;2.93;;
51266;SDS011;37338;47.426;19.204;2024-02-21T08:45:12;15.03;;;3.10;;
51266;SDS011;37338;47.426;19.204;2024-02-21T08:47:40;7.83;;;2.33;;
51266;SDS011;37338;47.426;19.204;2024-02-21T08:50:06;10.10;;;2.23;;
51266;SDS011;37338;47.426;19.204;2024-02-21T08:52:32;6.97;;;2.33;;
51266;SDS011;37338;47.426;19.204;2024-02-21T08:54:57;11.80;;;1.87;;
51266;SDS011;37338;47.426;19.204;2024-02-21T08:57:23;8.97;;;2.60;;
51266;SDS011;37338;47.426;19.204;2024-02-21T08:59:48;9.90;;;2.00;;
51266;SDS011;37338;47.426;19.204;2024-02-21T09:02:13;11.17;;;3.03;;
51266;SDS011;37338;47.426;19.204;2024-02-21T09:04:41;11.30;;;1.80;;
51266;SDS011;37338;47.426;19.204;2024-02-21T09:07:06;10.17;;;2.63;;
51266;SDS011;37338;47.426;19.204;2024-02-21T09:09:31;8.90;;;2.23;;
51266;SDS011;37338;47.426;19.204;2024-02-21T09:11:58;7.53;;;1.57;;
51266;SDS011;37338;47.426;19.204;2024-02-21T09:14:30;7.45;;;2.53;;
51266;SDS011;37338;47.426;19.204;2024-02-21T09:16:55;6.33;;;2.27;;
51266;SDS011;37338;47.426;19.204;2024-02-21T09:19:21;7.97;;;2.10;;
51266;SDS011;37338;47.426;19.204;2024-02-21T09:21:46;3.13;;;1.53;;
51266;SDS011;37338;47.426;19.204;2024-02-21T09:24:11;7.57;;;2.03;;
51266;SDS011;37338;47.426;19.204;2024-02-21T09:26:37;9.30;;;3.00;;
51266;SDS011;37338;47.426;19.204;2024-02-21T09:29:02;9.50;;;2.93;;
51266;SDS011;37338;47.426;19.204;2024-02-21T09:31:28;8.87;;;3.20;;
51266;SDS011;37338;47.426;19.204;2024-02-21T09:33:54;7.27;;;1.90;;
51266;SDS011;37338;47.426;19.204;2024-02-21T09:36:19;10.57;;;3.13;;
51266;SDS011;37338;47.426;19.204;2024-02-21T09:38:46;7.33;;;1.90;;
51266;SDS011;37338;47.426;19.204;2024-02-21T09:41:18;5.63;;;1.83;;
51266;SDS011;37338;47.426;19.204;2024-02-21T09:43:46;5.70;;;2.17;;
51266;SDS011;37338;47.426;19.204;2024-02-21T09:46:13;10.93;;;2.17;;
51266;SDS011;37338;47.426;19.204;2024-02-21T09:53:40;11.00;;;1.80;;
51266;SDS011;37338;47.426;19.204;2024-02-21T09:56:07;8.90;;;1.70;;
51266;SDS011;37338;47.426;19.204;2024-02-21T09:58:33;12.40;;;2.10;;
51266;SDS011;37338;47.426;19.204;2024-02-21T10:00:59;7.03;;;1.97;;
51266;SDS011;37338;47.426;19.204;2024-02-21T10:03:25;8.03;;;2.10;;
51266;SDS011;37338;47.426;19.204;2024-02-21T10:05:50;11.07;;;2.60;;
51266;SDS011;37338;47.426;19.204;2024-02-21T10:08:16;12.23;;;2.22;;
51266;SDS011;37338;47.426;19.204;2024-02-21T10:10:44;13.07;;;2.70;;
51266;SDS011;37338;47.426;19.204;2024-02-21T10:13:10;7.47;;;2.10;;
51266;SDS011;37338;47.426;19.204;2024-02-21T10:15:36;11.25;;;2.03;;
51266;SDS011;37338;47.426;19.204;2024-02-21T10:18:02;6.60;;;1.13;;
51266;SDS011;37338;47.426;19.204;2024-02-21T10:20:31;10.45;;;1.83;;
51266;SDS011;37338;47.426;19.204;2024-02-21T10:23:06;7.15;;;1.50;;
51266;SDS011;37338;47.426;19.204;2024-02-21T10:25:35;8.25;;;2.28;;
51266;SDS011;37338;47.426;19.204;2024-02-21T10:28:03;6.28;;;1.25;;
51266;SDS011;37338;47.426;19.204;2024-02-21T10:30:28;7.13;;;1.23;;
51266;SDS011;37338;47.426;19.204;2024-02-21T10:32:54;4.60;;;1.45;;
51266;SDS011;37338;47.426;19.204;2024-02-21T10:35:30;4.88;;;1.52;;
51266;SDS011;37338;47.426;19.204;2024-02-21T10:37:56;3.58;;;1.30;;
51266;SDS011;37338;47.426;19.204;2024-02-21T10:40:23;5.65;;;1.27;;
51266;SDS011;37338;47.426;19.204;2024-02-21T10:42:50;6.80;;;1.30;;
51266;SDS011;37338;47.426;19.204;2024-02-21T10:45:22;7.65;;;2.13;;
51266;SDS011;37338;47.426;19.204;2024-02-21T10:47:48;4.97;;;1.50;;
51266;SDS011;37338;47.426;19.204;2024-02-21T10:50:15;6.93;;;1.95;;
51266;SDS011;37338;47.426;19.204;2024-02-21T10:52:47;10.07;;;1.63;;
51266;SDS011;37338;47.426;19.204;2024-02-21T10:55:21;6.45;;;1.92;;
51266;SDS011;37338;47.426;19.204;2024-02-21T10:57:55;4.70;;;1.67;;
51266;SDS011;37338;47.426;19.204;2024-02-21T11:00:22;7.15;;;2.05;;
51266;SDS011;37338;47.426;19.204;2024-02-21T11:02:52;9.57;;;2.17;;
51266;SDS011;37338;47.426;19.204;2024-02-21T11:05:17;7.60;;;1.48;;
51266;SDS011;37338;47.426;19.204;2024-02-21T11:07:43;9.50;;;2.28;;
51266;SDS011;37338;47.426;19.204;2024-02-21T11:10:20;6.50;;;1.67;;
51266;SDS011;37338;47.426;19.204;2024-02-21T11:12:47;18.88;;;2.53;;
51266;SDS011;37338;47.426;19.204;2024-02-21T11:15:13;6.32;;;2.13;;
51266;SDS011;37338;47.426;19.204;2024-02-21T11:17:38;7.75;;;2.70;;
51266;SDS011;37338;47.426;19.204;2024-02-21T11:20:10;8.48;;;2.08;;
51266;SDS011;37338;47.426;19.204;2024-02-21T11:22:41;8.43;;;2.38;;
51266;SDS011;37338;47.426;19.204;2024-02-21T11:25:07;18.35;;;1.80;;
51266;SDS011;37338;47.426;19.204;2024-02-21T11:27:36;8.13;;;1.83;;
51266;SDS011;37338;47.426;19.204;2024-02-21T11:30:03;6.70;;;1.75;;
51266;SDS011;37338;47.426;19.204;2024-02-21T11:32:29;13.25;;;2.28;;
51266;SDS011;37338;47.426;19.204;2024-02-21T11:35:05;6.85;;;2.17;;
51266;SDS011;37338;47.426;19.204;2024-02-21T11:37:31;9.30;;;2.05;;
51266;SDS011;37338;47.426;19.204;2024-02-21T11:40:02;7.20;;;1.83;;
51266;SDS011;37338;47.426;19.204;2024-02-21T11:42:28;11.40;;;3.00;;
51266;SDS011;37338;47.426;19.204;2024-02-21T11:44:55;6.75;;;2.28;;
51266;SDS011;37338;47.426;19.204;2024-02-21T11:47:24;6.57;;;2.05;;
51266;SDS011;37338;47.426;19.204;2024-02-21T11:49:49;8.13;;;2.60;;
51266;SDS011;37338;47.426;19.204;2024-02-21T11:52:18;7.25;;;2.53;;
51266;SDS011;37338;47.426;19.204;2024-02-21T11:54:47;4.90;;;1.63;;
51266;SDS011;37338;47.426;19.204;2024-02-21T11:57:12;4.50;;;1.92;;
51266;SDS011;37338;47.426;19.204;2024-02-21T11:59:39;6.65;;;2.83;;
51266;SDS011;37338;47.426;19.204;2024-02-21T12:02:05;9.35;;;2.28;;
51266;SDS011;37338;47.426;19.204;2024-02-21T12:04:30;8.18;;;2.38;;
51266;SDS011;37338;47.426;19.204;2024-02-21T12:06:56;10.65;;;2.47;;
51266;SDS011;37338;47.426;19.204;2024-02-21T12:09:23;6.40;;;1.92;;
51266;SDS011;37338;47.426;19.204;2024-02-21T12:11:56;10.05;;;2.58;;
51266;SDS011;37338;47.426;19.204;2024-02-21T12:14:24;9.48;;;3.50;;
51266;SDS011;37338;47.426;19.204;2024-02-21T12:16:50;6.82;;;2.25;;
51266;SDS011;37338;47.426;19.204;2024-02-21T12:19:15;8.13;;;3.00;;
51266;SDS011;37338;47.426;19.204;2024-02-21T12:21:41;9.80;;;2.75;;
51266;SDS011;37338;47.426;19.204;2024-02-21T12:24:14;9.25;;;3.13;;
51266;SDS011;37338;47.426;19.204;2024-02-21T12:26:49;7.55;;;2.20;;
51266;SDS011;37338;47.426;19.204;2024-02-21T12:29:15;13.98;;;2.90;;
51266;SDS011;37338;47.426;19.204;2024-02-21T12:31:40;9.40;;;4.18;;
51266;SDS011;37338;47.426;19.204;2024-02-21T12:34:06;9.63;;;3.83;;
51266;SDS011;37338;47.426;19.204;2024-02-21T12:36:31;7.22;;;2.50;;
51266;SDS011;37338;47.426;19.204;2024-02-21T12:38:57;9.50;;;2.95;;
51266;SDS011;37338;47.426;19.204;2024-02-21T12:41:23;9.65;;;2.20;;
51266;SDS011;37338;47.426;19.204;2024-02-21T12:43:50;6.45;;;2.47;;
51266;SDS011;37338;47.426;19.204;2024-02-21T12:46:15;8.95;;;2.35;;
51266;SDS011;37338;47.426;19.204;2024-02-21T12:48:41;6.05;;;2.08;;
51266;SDS011;37338;47.426;19.204;2024-02-21T12:51:06;7.75;;;1.98;;
51266;SDS011;37338;47.426;19.204;2024-02-21T12:53:31;13.75;;;3.70;;
51266;SDS011;37338;47.426;19.204;2024-02-21T12:55:57;7.80;;;2.10;;
51266;SDS011;37338;47.426;19.204;2024-02-21T12:58:22;8.18;;;2.42;;
51266;SDS011;37338;47.426;19.204;2024-02-21T13:00:47;7.90;;;2.30;;
51266;SDS011;37338;47.426;19.204;2024-02-21T13:03:13;8.55;;;1.80;;
51266;SDS011;37338;47.426;19.204;2024-02-21T13:05:39;8.95;;;2.45;;
51266;SDS011;37338;47.426;19.204;2024-02-21T13:08:05;8.55;;;2.10;;
51266;SDS011;37338;47.426;19.204;2024-02-21T13:10:31;8.45;;;1.67;;
51266;SDS011;37338;47.426;19.204;2024-02-21T13:12:59;5.63;;;1.80;;
51266;SDS011;37338;47.426;19.204;2024-02-21T13:15:24;14.73;;;2.80;;
51266;SDS011;37338;47.426;19.204;2024-02-21T13:17:50;9.60;;;1.67;;
51266;SDS011;37338;47.426;19.204;2024-02-21T13:20:15;12.13;;;2.72;;
51266;SDS011;37338;47.426;19.204;2024-02-21T13:22:40;7.88;;;1.52;;
51266;SDS011;37338;47.426;19.204;2024-02-21T13:25:06;17.58;;;2.97;;
51266;SDS011;37338;47.426;19.204;2024-02-21T13:27:32;6.65;;;4.38;;
51266;SDS011;37338;47.426;19.204;2024-02-21T13:29:58;5.95;;;2.22;;
51266;SDS011;37338;47.426;19.204;2024-02-21T13:32:23;8.85;;;3.60;;
51266;SDS011;37338;47.426;19.204;2024-02-21T13:34:49;10.15;;;1.88;;
51266;SDS011;37338;47.426;19.204;2024-02-21T13:37:15;6.78;;;1.83;;
51266;SDS011;37338;47.426;19.204;2024-02-21T13:39:40;14.05;;;3.65;;
51266;SDS011;37338;47.426;19.204;2024-02-21T13:42:06;8.40;;;2.72;;
51266;SDS011;37338;47.426;19.204;2024-02-21T13:44:31;8.00;;;2.80;;
51266;SDS011;37338;47.426;19.204;2024-02-21T13:46:57;5.35;;;1.50;;
51266;SDS011;37338;47.426;19.204;2024-02-21T13:49:22;7.15;;;1.45;;
51266;SDS011;37338;47.426;19.204;2024-02-21T13:51:48;8.40;;;2.00;;
51266;SDS011;37338;47.426;19.204;2024-02-21T13:54:13;9.65;;;3.05;;
51266;SDS011;37338;47.426;19.204;2024-02-21T13:56:42;9.32;;;2.63;;
51266;SDS011;37338;47.426;19.204;2024-02-21T13:59:07;10.07;;;1.63;;
51266;SDS011;37338;47.426;19.204;2024-02-21T14:01:33;8.30;;;2.17;;
51266;SDS011;37338;47.426;19.204;2024-02-21T14:03:58;7.57;;;1.90;;
51266;SDS011;37338;47.426;19.204;2024-02-21T14:06:23;6.40;;;2.30;;
51266;SDS011;37338;47.426;19.204;2024-02-21T14:08:49;7.63;;;2.50;;
51266;SDS011;37338;47.426;19.204;2024-02-21T14:11:14;6.10;;;2.00;;
51266;SDS011;37338;47.426;19.204;2024-02-21T14:13:40;5.53;;;1.33;;
51266;SDS011;37338;47.426;19.204;2024-02-21T14:16:14;11.82;;;1.63;;
51266;SDS011;37338;47.426;19.204;2024-02-21T14:18:43;10.68;;;3.28;;
51266;SDS011;37338;47.426;19.204;2024-02-21T14:21:08;9.95;;;1.50;;
51266;SDS011;37338;47.426;19.204;2024-02-21T14:23:35;6.70;;;1.35;;
51266;SDS011;37338;47.426;19.204;2024-02-21T14:26:02;7.07;;;2.25;;
51266;SDS011;37338;47.426;19.204;2024-02-21T14:28:28;6.95;;;1.15;;
51266;SDS011;37338;47.426;19.204;2024-02-21T14:30:53;9.15;;;1.70;;